sensor_id;sensor_type;location;lat;lon;timestamp;P1;durP1;ratioP1;P2;durP2;ratioP2
26710;SDS011;18311;52.754;18.118;2022-08-16T00:00:03;10.85;;;9.18;;
26710;SDS011;18311;52.754;18.118;2022-08-16T00:02:40;10.98;;;9.30;;
26710;SDS011;18311;52.754;18.118;2022-08-16T00:05:14;11.22;;;10.03;;
26710;SDS011;18311;52.754;18.118;2022-08-16T00:07:45;12.80;;;9.75;;
26710;SDS011;18311;52.754;18.118;2022-08-16T00:10:19;10.68;;;9.53;;
26710;SDS011;18311;52.754;18.118;2022-08-16T00:12:52;10.10;;;9.13;;
26710;SDS011;18311;52.754;18.118;2022-08-16T00:15:36;12.90;;;9.75;;
26710;SDS011;18311;52.754;18.118;2022-08-16T00:18:10;10.13;;;9.13;;
26710;SDS011;18311;52.754;18.118;2022-08-16T00:20:44;11.05;;;9.95;;
26710;SDS011;18311;52.754;18.118;2022-08-16T00:23:18;12.10;;;9.05;;
26710;SDS011;18311;52.754;18.118;2022-08-16T00:25:51;10.48;;;9.10;;
26710;SDS011;18311;52.754;18.118;2022-08-16T00:28:23;10.88;;;9.78;;
26710;SDS011;18311;52.754;18.118;2022-08-16T00:30:56;12.00;;;9.55;;
26710;SDS011;18311;52.754;18.118;2022-08-16T00:33:30;14.38;;;9.80;;
26710;SDS011;18311;52.754;18.118;2022-08-16T00:36:02;10.45;;;9.10;;
26710;SDS011;18311;52.754;18.118;2022-08-16T00:38:34;11.60;;;9.20;;
26710;SDS011;18311;52.754;18.118;2022-08-16T00:41:07;10.85;;;9.78;;
26710;SDS011;18311;52.754;18.118;2022-08-16T00:43:38;10.05;;;9.15;;
26710;SDS011;18311;52.754;18.118;2022-08-16T00:46:13;12.18;;;10.20;;
26710;SDS011;18311;52.754;18.118;2022-08-16T00:48:47;13.28;;;9.48;;
26710;SDS011;18311;52.754;18.118;2022-08-16T00:51:20;11.25;;;10.03;;
26710;SDS011;18311;52.754;18.118;2022-08-16T00:53:54;11.50;;;10.30;;
26710;SDS011;18311;52.754;18.118;2022-08-16T00:56:27;11.10;;;9.10;;
26710;SDS011;18311;52.754;18.118;2022-08-16T00:59:02;11.70;;;10.00;;
26710;SDS011;18311;52.754;18.118;2022-08-16T01:01:36;11.38;;;10.20;;
26710;SDS011;18311;52.754;18.118;2022-08-16T01:04:07;12.25;;;10.18;;
26710;SDS011;18311;52.754;18.118;2022-08-16T01:06:42;11.25;;;10.03;;
26710;SDS011;18311;52.754;18.118;2022-08-16T01:09:14;12.28;;;9.98;;
26710;SDS011;18311;52.754;18.118;2022-08-16T01:11:46;10.82;;;9.68;;
26710;SDS011;18311;52.754;18.118;2022-08-16T01:14:24;13.75;;;10.13;;
26710;SDS011;18311;52.754;18.118;2022-08-16T01:16:57;11.45;;;9.85;;
26710;SDS011;18311;52.754;18.118;2022-08-16T01:19:37;10.60;;;9.65;;
26710;SDS011;18311;52.754;18.118;2022-08-16T01:22:18;11.28;;;9.70;;
26710;SDS011;18311;52.754;18.118;2022-08-16T01:25:09;11.15;;;9.68;;
26710;SDS011;18311;52.754;18.118;2022-08-16T01:28:01;11.73;;;9.35;;
26710;SDS011;18311;52.754;18.118;2022-08-16T01:30:36;12.18;;;9.88;;
26710;SDS011;18311;52.754;18.118;2022-08-16T01:33:11;10.95;;;9.85;;
26710;SDS011;18311;52.754;18.118;2022-08-16T01:35:47;11.08;;;9.98;;
26710;SDS011;18311;52.754;18.118;2022-08-16T01:38:24;13.75;;;9.88;;
26710;SDS011;18311;52.754;18.118;2022-08-16T01:41:02;13.70;;;10.30;;
26710;SDS011;18311;52.754;18.118;2022-08-16T01:43:37;11.00;;;9.85;;
26710;SDS011;18311;52.754;18.118;2022-08-16T01:46:18;13.18;;;10.03;;
26710;SDS011;18311;52.754;18.118;2022-08-16T01:49:06;10.98;;;9.93;;
26710;SDS011;18311;52.754;18.118;2022-08-16T01:51:53;12.58;;;10.18;;
26710;SDS011;18311;52.754;18.118;2022-08-16T01:54:25;12.27;;;10.73;;
26710;SDS011;18311;52.754;18.118;2022-08-16T01:56:59;12.60;;;10.23;;
26710;SDS011;18311;52.754;18.118;2022-08-16T01:59:31;13.48;;;10.40;;
26710;SDS011;18311;52.754;18.118;2022-08-16T02:02:04;11.60;;;10.38;;
26710;SDS011;18311;52.754;18.118;2022-08-16T02:04:37;11.83;;;10.60;;
26710;SDS011;18311;52.754;18.118;2022-08-16T02:07:10;11.80;;;10.58;;
26710;SDS011;18311;52.754;18.118;2022-08-16T02:09:45;12.07;;;10.35;;
26710;SDS011;18311;52.754;18.118;2022-08-16T02:12:20;12.40;;;10.98;;
26710;SDS011;18311;52.754;18.118;2022-08-16T02:14:52;11.60;;;10.40;;
26710;SDS011;18311;52.754;18.118;2022-08-16T02:17:25;11.03;;;9.98;;
26710;SDS011;18311;52.754;18.118;2022-08-16T02:19:57;13.28;;;10.32;;
26710;SDS011;18311;52.754;18.118;2022-08-16T02:22:28;12.18;;;10.48;;
26710;SDS011;18311;52.754;18.118;2022-08-16T02:25:03;12.30;;;10.35;;
26710;SDS011;18311;52.754;18.118;2022-08-16T02:27:40;12.58;;;10.28;;
26710;SDS011;18311;52.754;18.118;2022-08-16T02:30:15;11.90;;;10.68;;
26710;SDS011;18311;52.754;18.118;2022-08-16T02:32:52;12.15;;;10.95;;
26710;SDS011;18311;52.754;18.118;2022-08-16T02:35:23;11.43;;;10.20;;
26710;SDS011;18311;52.754;18.118;2022-08-16T02:37:56;11.88;;;10.68;;
26710;SDS011;18311;52.754;18.118;2022-08-16T02:40:30;13.13;;;10.10;;
26710;SDS011;18311;52.754;18.118;2022-08-16T02:43:03;11.20;;;10.08;;
26710;SDS011;18311;52.754;18.118;2022-08-16T02:45:35;12.07;;;10.08;;
26710;SDS011;18311;52.754;18.118;2022-08-16T02:48:08;11.40;;;10.20;;
26710;SDS011;18311;52.754;18.118;2022-08-16T02:50:41;11.05;;;9.95;;
26710;SDS011;18311;52.754;18.118;2022-08-16T02:53:14;11.20;;;10.20;;
26710;SDS011;18311;52.754;18.118;2022-08-16T02:55:47;12.98;;;10.28;;
26710;SDS011;18311;52.754;18.118;2022-08-16T02:58:19;11.97;;;10.72;;
26710;SDS011;18311;52.754;18.118;2022-08-16T03:00:53;11.08;;;9.95;;
26710;SDS011;18311;52.754;18.118;2022-08-16T03:03:25;10.58;;;9.58;;
26710;SDS011;18311;52.754;18.118;2022-08-16T03:05:58;11.28;;;10.18;;
26710;SDS011;18311;52.754;18.118;2022-08-16T03:08:31;11.53;;;10.32;;
26710;SDS011;18311;52.754;18.118;2022-08-16T03:11:04;11.83;;;10.65;;
26710;SDS011;18311;52.754;18.118;2022-08-16T03:13:37;12.10;;;10.58;;
26710;SDS011;18311;52.754;18.118;2022-08-16T03:16:10;11.25;;;10.15;;
26710;SDS011;18311;52.754;18.118;2022-08-16T03:18:43;12.43;;;10.03;;
26710;SDS011;18311;52.754;18.118;2022-08-16T03:21:14;14.03;;;11.43;;
26710;SDS011;18311;52.754;18.118;2022-08-16T03:23:46;12.68;;;11.10;;
26710;SDS011;18311;52.754;18.118;2022-08-16T03:26:19;12.80;;;11.12;;
26710;SDS011;18311;52.754;18.118;2022-08-16T03:28:52;12.58;;;11.12;;
26710;SDS011;18311;52.754;18.118;2022-08-16T03:31:24;13.83;;;10.68;;
26710;SDS011;18311;52.754;18.118;2022-08-16T03:33:57;11.63;;;10.53;;
26710;SDS011;18311;52.754;18.118;2022-08-16T03:36:30;13.13;;;11.78;;
26710;SDS011;18311;52.754;18.118;2022-08-16T03:39:03;13.35;;;11.93;;
26710;SDS011;18311;52.754;18.118;2022-08-16T03:41:36;13.05;;;11.25;;
26710;SDS011;18311;52.754;18.118;2022-08-16T03:44:10;11.83;;;10.58;;
26710;SDS011;18311;52.754;18.118;2022-08-16T03:46:43;12.15;;;10.70;;
26710;SDS011;18311;52.754;18.118;2022-08-16T03:49:16;11.53;;;10.43;;
26710;SDS011;18311;52.754;18.118;2022-08-16T03:51:49;11.80;;;10.48;;
26710;SDS011;18311;52.754;18.118;2022-08-16T03:54:20;11.60;;;10.60;;
26710;SDS011;18311;52.754;18.118;2022-08-16T03:56:53;12.90;;;11.60;;
26710;SDS011;18311;52.754;18.118;2022-08-16T03:59:26;12.73;;;10.82;;
26710;SDS011;18311;52.754;18.118;2022-08-16T04:01:58;13.10;;;11.40;;
26710;SDS011;18311;52.754;18.118;2022-08-16T04:04:31;12.88;;;10.98;;
26710;SDS011;18311;52.754;18.118;2022-08-16T04:07:05;12.50;;;11.10;;
26710;SDS011;18311;52.754;18.118;2022-08-16T04:09:36;12.03;;;10.93;;
26710;SDS011;18311;52.754;18.118;2022-08-16T04:12:08;11.88;;;10.68;;
26710;SDS011;18311;52.754;18.118;2022-08-16T04:14:42;11.12;;;10.13;;
26710;SDS011;18311;52.754;18.118;2022-08-16T04:17:17;12.37;;;10.90;;
26710;SDS011;18311;52.754;18.118;2022-08-16T04:19:48;11.28;;;10.13;;
26710;SDS011;18311;52.754;18.118;2022-08-16T04:22:22;12.95;;;11.57;;
26710;SDS011;18311;52.754;18.118;2022-08-16T04:24:54;13.75;;;11.28;;
26710;SDS011;18311;52.754;18.118;2022-08-16T04:27:27;13.00;;;11.33;;
26710;SDS011;18311;52.754;18.118;2022-08-16T04:29:59;11.97;;;10.75;;
26710;SDS011;18311;52.754;18.118;2022-08-16T04:32:31;12.45;;;11.15;;
26710;SDS011;18311;52.754;18.118;2022-08-16T04:35:04;12.65;;;11.40;;
26710;SDS011;18311;52.754;18.118;2022-08-16T04:40:10;11.60;;;10.50;;
26710;SDS011;18311;52.754;18.118;2022-08-16T04:42:43;11.95;;;10.85;;
26710;SDS011;18311;52.754;18.118;2022-08-16T04:45:14;13.15;;;11.73;;
26710;SDS011;18311;52.754;18.118;2022-08-16T04:47:48;13.22;;;11.88;;
26710;SDS011;18311;52.754;18.118;2022-08-16T04:50:22;12.00;;;10.88;;
26710;SDS011;18311;52.754;18.118;2022-08-16T04:52:58;12.58;;;11.30;;
26710;SDS011;18311;52.754;18.118;2022-08-16T04:55:31;14.45;;;11.38;;
26710;SDS011;18311;52.754;18.118;2022-08-16T04:58:05;13.13;;;11.80;;
26710;SDS011;18311;52.754;18.118;2022-08-16T05:00:38;12.88;;;11.50;;
26710;SDS011;18311;52.754;18.118;2022-08-16T05:03:11;13.13;;;11.90;;
26710;SDS011;18311;52.754;18.118;2022-08-16T05:05:42;12.07;;;10.90;;
26710;SDS011;18311;52.754;18.118;2022-08-16T05:08:14;14.28;;;12.18;;
26710;SDS011;18311;52.754;18.118;2022-08-16T05:10:47;14.10;;;12.28;;
26710;SDS011;18311;52.754;18.118;2022-08-16T05:13:19;13.85;;;11.88;;
26710;SDS011;18311;52.754;18.118;2022-08-16T05:15:53;13.93;;;12.47;;
26710;SDS011;18311;52.754;18.118;2022-08-16T05:18:24;13.20;;;11.28;;
26710;SDS011;18311;52.754;18.118;2022-08-16T05:20:56;13.83;;;12.50;;
26710;SDS011;18311;52.754;18.118;2022-08-16T05:23:29;14.43;;;12.30;;
26710;SDS011;18311;52.754;18.118;2022-08-16T05:26:01;14.10;;;12.70;;
26710;SDS011;18311;52.754;18.118;2022-08-16T05:28:32;14.93;;;12.63;;
26710;SDS011;18311;52.754;18.118;2022-08-16T05:31:06;14.13;;;12.73;;
26710;SDS011;18311;52.754;18.118;2022-08-16T05:33:38;12.85;;;11.65;;
26710;SDS011;18311;52.754;18.118;2022-08-16T05:36:10;13.65;;;12.25;;
26710;SDS011;18311;52.754;18.118;2022-08-16T05:38:42;14.45;;;12.75;;
26710;SDS011;18311;52.754;18.118;2022-08-16T05:41:14;16.05;;;12.85;;
26710;SDS011;18311;52.754;18.118;2022-08-16T05:43:46;13.78;;;12.10;;
26710;SDS011;18311;52.754;18.118;2022-08-16T05:46:17;13.98;;;12.58;;
26710;SDS011;18311;52.754;18.118;2022-08-16T05:48:51;16.60;;;13.20;;
26710;SDS011;18311;52.754;18.118;2022-08-16T05:51:23;14.07;;;12.78;;
26710;SDS011;18311;52.754;18.118;2022-08-16T05:53:56;13.85;;;12.45;;
26710;SDS011;18311;52.754;18.118;2022-08-16T05:56:27;16.02;;;13.20;;
26710;SDS011;18311;52.754;18.118;2022-08-16T05:59:00;14.43;;;12.93;;
26710;SDS011;18311;52.754;18.118;2022-08-16T06:01:33;14.07;;;12.50;;
26710;SDS011;18311;52.754;18.118;2022-08-16T06:04:06;13.95;;;12.60;;
26710;SDS011;18311;52.754;18.118;2022-08-16T06:06:40;12.65;;;11.40;;
26710;SDS011;18311;52.754;18.118;2022-08-16T06:09:14;13.00;;;11.70;;
26710;SDS011;18311;52.754;18.118;2022-08-16T06:11:46;13.22;;;11.73;;
26710;SDS011;18311;52.754;18.118;2022-08-16T06:14:18;13.70;;;12.40;;
26710;SDS011;18311;52.754;18.118;2022-08-16T06:16:49;14.30;;;12.20;;
26710;SDS011;18311;52.754;18.118;2022-08-16T06:19:22;12.78;;;11.50;;
26710;SDS011;18311;52.754;18.118;2022-08-16T06:21:57;16.15;;;13.18;;
26710;SDS011;18311;52.754;18.118;2022-08-16T06:24:29;13.55;;;12.18;;
26710;SDS011;18311;52.754;18.118;2022-08-16T06:27:02;15.93;;;11.65;;
26710;SDS011;18311;52.754;18.118;2022-08-16T06:29:35;14.00;;;12.60;;
26710;SDS011;18311;52.754;18.118;2022-08-16T06:32:06;13.30;;;12.00;;
26710;SDS011;18311;52.754;18.118;2022-08-16T06:34:38;12.98;;;11.57;;
26710;SDS011;18311;52.754;18.118;2022-08-16T06:37:11;13.55;;;11.05;;
26710;SDS011;18311;52.754;18.118;2022-08-16T06:39:42;12.35;;;11.15;;
26710;SDS011;18311;52.754;18.118;2022-08-16T06:42:15;13.40;;;11.93;;
26710;SDS011;18311;52.754;18.118;2022-08-16T06:44:48;13.95;;;12.33;;
26710;SDS011;18311;52.754;18.118;2022-08-16T06:47:19;13.88;;;12.53;;
26710;SDS011;18311;52.754;18.118;2022-08-16T06:49:52;13.08;;;11.83;;
26710;SDS011;18311;52.754;18.118;2022-08-16T06:52:25;14.25;;;12.68;;
26710;SDS011;18311;52.754;18.118;2022-08-16T06:54:59;14.98;;;12.95;;
26710;SDS011;18311;52.754;18.118;2022-08-16T06:57:31;13.08;;;11.65;;
26710;SDS011;18311;52.754;18.118;2022-08-16T07:00:04;13.43;;;12.03;;
26710;SDS011;18311;52.754;18.118;2022-08-16T07:02:43;12.95;;;11.75;;
26710;SDS011;18311;52.754;18.118;2022-08-16T07:05:16;14.53;;;11.30;;
26710;SDS011;18311;52.754;18.118;2022-08-16T07:07:49;12.98;;;11.68;;
26710;SDS011;18311;52.754;18.118;2022-08-16T07:10:22;12.23;;;11.03;;
26710;SDS011;18311;52.754;18.118;2022-08-16T07:12:56;13.85;;;12.45;;
26710;SDS011;18311;52.754;18.118;2022-08-16T07:15:31;12.53;;;11.33;;
26710;SDS011;18311;52.754;18.118;2022-08-16T07:18:02;13.48;;;12.13;;
26710;SDS011;18311;52.754;18.118;2022-08-16T07:20:35;13.45;;;12.15;;
26710;SDS011;18311;52.754;18.118;2022-08-16T07:23:08;12.65;;;11.53;;
26710;SDS011;18311;52.754;18.118;2022-08-16T07:25:41;14.53;;;11.20;;
26710;SDS011;18311;52.754;18.118;2022-08-16T07:28:13;13.35;;;11.22;;
26710;SDS011;18311;52.754;18.118;2022-08-16T07:30:47;12.50;;;11.22;;
26710;SDS011;18311;52.754;18.118;2022-08-16T07:33:18;12.15;;;10.95;;
26710;SDS011;18311;52.754;18.118;2022-08-16T07:35:53;12.05;;;10.95;;
26710;SDS011;18311;52.754;18.118;2022-08-16T07:38:24;12.10;;;10.93;;
26710;SDS011;18311;52.754;18.118;2022-08-16T07:40:57;12.07;;;10.90;;
26710;SDS011;18311;52.754;18.118;2022-08-16T07:43:30;12.15;;;10.80;;
26710;SDS011;18311;52.754;18.118;2022-08-16T07:46:03;11.88;;;10.75;;
26710;SDS011;18311;52.754;18.118;2022-08-16T07:48:36;11.78;;;10.68;;
26710;SDS011;18311;52.754;18.118;2022-08-16T07:51:06;11.60;;;10.43;;
26710;SDS011;18311;52.754;18.118;2022-08-16T07:53:38;10.63;;;9.63;;
26710;SDS011;18311;52.754;18.118;2022-08-16T07:56:11;10.93;;;9.78;;
26710;SDS011;18311;52.754;18.118;2022-08-16T07:58:44;10.80;;;9.75;;
26710;SDS011;18311;52.754;18.118;2022-08-16T08:01:17;10.55;;;9.45;;
26710;SDS011;18311;52.754;18.118;2022-08-16T08:03:50;10.28;;;9.38;;
26710;SDS011;18311;52.754;18.118;2022-08-16T08:06:23;9.75;;;8.85;;
26710;SDS011;18311;52.754;18.118;2022-08-16T08:08:59;10.32;;;9.25;;
26710;SDS011;18311;52.754;18.118;2022-08-16T08:11:33;9.35;;;8.53;;
26710;SDS011;18311;52.754;18.118;2022-08-16T08:14:04;10.25;;;9.35;;
26710;SDS011;18311;52.754;18.118;2022-08-16T08:16:35;10.32;;;9.33;;
26710;SDS011;18311;52.754;18.118;2022-08-16T08:19:08;10.18;;;9.18;;
26710;SDS011;18311;52.754;18.118;2022-08-16T08:21:40;10.58;;;9.58;;
26710;SDS011;18311;52.754;18.118;2022-08-16T08:24:14;10.72;;;9.65;;
26710;SDS011;18311;52.754;18.118;2022-08-16T08:26:45;9.58;;;8.58;;
26710;SDS011;18311;52.754;18.118;2022-08-16T08:29:17;9.60;;;8.70;;
26710;SDS011;18311;52.754;18.118;2022-08-16T08:31:52;9.93;;;8.63;;
26710;SDS011;18311;52.754;18.118;2022-08-16T08:34:23;10.15;;;8.85;;
26710;SDS011;18311;52.754;18.118;2022-08-16T08:36:54;8.95;;;8.15;;
26710;SDS011;18311;52.754;18.118;2022-08-16T08:39:25;9.85;;;8.45;;
26710;SDS011;18311;52.754;18.118;2022-08-16T08:41:58;8.78;;;7.97;;
26710;SDS011;18311;52.754;18.118;2022-08-16T08:44:31;8.65;;;7.85;;
26710;SDS011;18311;52.754;18.118;2022-08-16T08:47:03;8.88;;;8.10;;
26710;SDS011;18311;52.754;18.118;2022-08-16T08:49:37;9.85;;;8.85;;
26710;SDS011;18311;52.754;18.118;2022-08-16T08:52:10;8.28;;;7.47;;
26710;SDS011;18311;52.754;18.118;2022-08-16T08:54:44;10.32;;;8.60;;
26710;SDS011;18311;52.754;18.118;2022-08-16T08:57:17;8.85;;;7.95;;
26710;SDS011;18311;52.754;18.118;2022-08-16T08:59:50;9.98;;;8.50;;
26710;SDS011;18311;52.754;18.118;2022-08-16T09:02:24;8.38;;;7.58;;
26710;SDS011;18311;52.754;18.118;2022-08-16T09:04:55;11.03;;;8.73;;
26710;SDS011;18311;52.754;18.118;2022-08-16T09:07:26;8.95;;;8.15;;
26710;SDS011;18311;52.754;18.118;2022-08-16T09:09:59;9.73;;;8.73;;
26710;SDS011;18311;52.754;18.118;2022-08-16T09:12:33;9.53;;;8.60;;
26710;SDS011;18311;52.754;18.118;2022-08-16T09:15:05;9.05;;;8.25;;
26710;SDS011;18311;52.754;18.118;2022-08-16T09:17:39;8.95;;;8.13;;
26710;SDS011;18311;52.754;18.118;2022-08-16T09:20:14;8.63;;;7.83;;
26710;SDS011;18311;52.754;18.118;2022-08-16T09:22:47;8.55;;;7.85;;
26710;SDS011;18311;52.754;18.118;2022-08-16T09:25:20;9.05;;;8.15;;
26710;SDS011;18311;52.754;18.118;2022-08-16T09:27:53;8.63;;;7.80;;
26710;SDS011;18311;52.754;18.118;2022-08-16T09:30:28;9.23;;;8.35;;
26710;SDS011;18311;52.754;18.118;2022-08-16T09:33:04;9.08;;;8.28;;
26710;SDS011;18311;52.754;18.118;2022-08-16T09:35:38;9.00;;;8.20;;
26710;SDS011;18311;52.754;18.118;2022-08-16T09:38:10;8.65;;;7.95;;
26710;SDS011;18311;52.754;18.118;2022-08-16T09:40:45;9.40;;;8.45;;
26710;SDS011;18311;52.754;18.118;2022-08-16T09:43:19;8.95;;;8.05;;
26710;SDS011;18311;52.754;18.118;2022-08-16T09:45:52;9.15;;;7.55;;
26710;SDS011;18311;52.754;18.118;2022-08-16T09:48:23;8.78;;;7.97;;
26710;SDS011;18311;52.754;18.118;2022-08-16T09:50:57;8.40;;;7.20;;
26710;SDS011;18311;52.754;18.118;2022-08-16T09:53:29;9.03;;;8.13;;
26710;SDS011;18311;52.754;18.118;2022-08-16T09:56:00;8.95;;;8.08;;
26710;SDS011;18311;52.754;18.118;2022-08-16T09:58:34;8.80;;;7.55;;
26710;SDS011;18311;52.754;18.118;2022-08-16T10:01:08;8.30;;;7.50;;
26710;SDS011;18311;52.754;18.118;2022-08-16T10:03:40;9.13;;;8.25;;
26710;SDS011;18311;52.754;18.118;2022-08-16T10:06:13;8.43;;;7.53;;
26710;SDS011;18311;52.754;18.118;2022-08-16T10:08:47;9.35;;;8.40;;
26710;SDS011;18311;52.754;18.118;2022-08-16T10:11:19;8.20;;;7.50;;
26710;SDS011;18311;52.754;18.118;2022-08-16T10:14:10;8.45;;;7.72;;
26710;SDS011;18311;52.754;18.118;2022-08-16T10:16:43;8.10;;;7.30;;
26710;SDS011;18311;52.754;18.118;2022-08-16T10:19:15;9.98;;;9.08;;
26710;SDS011;18311;52.754;18.118;2022-08-16T10:21:47;8.15;;;7.45;;
26710;SDS011;18311;52.754;18.118;2022-08-16T10:24:20;8.80;;;7.90;;
26710;SDS011;18311;52.754;18.118;2022-08-16T10:26:54;8.60;;;7.85;;
26710;SDS011;18311;52.754;18.118;2022-08-16T10:29:26;8.58;;;7.70;;
26710;SDS011;18311;52.754;18.118;2022-08-16T10:31:59;8.10;;;7.47;;
26710;SDS011;18311;52.754;18.118;2022-08-16T10:34:31;8.13;;;7.42;;
26710;SDS011;18311;52.754;18.118;2022-08-16T10:37:02;7.90;;;7.10;;
26710;SDS011;18311;52.754;18.118;2022-08-16T10:39:33;8.40;;;7.53;;
26710;SDS011;18311;52.754;18.118;2022-08-16T10:42:08;8.40;;;7.70;;
26710;SDS011;18311;52.754;18.118;2022-08-16T10:44:41;8.75;;;7.95;;
26710;SDS011;18311;52.754;18.118;2022-08-16T10:47:14;8.63;;;7.92;;
26710;SDS011;18311;52.754;18.118;2022-08-16T10:49:47;10.28;;;8.03;;
26710;SDS011;18311;52.754;18.118;2022-08-16T10:52:18;8.45;;;7.75;;
26710;SDS011;18311;52.754;18.118;2022-08-16T10:54:50;8.20;;;7.50;;
26710;SDS011;18311;52.754;18.118;2022-08-16T10:57:23;9.05;;;8.15;;
26710;SDS011;18311;52.754;18.118;2022-08-16T10:59:57;43.33;;;10.43;;
26710;SDS011;18311;52.754;18.118;2022-08-16T11:02:30;23.52;;;9.20;;
26710;SDS011;18311;52.754;18.118;2022-08-16T11:05:03;12.58;;;8.20;;
26710;SDS011;18311;52.754;18.118;2022-08-16T11:07:39;9.53;;;8.10;;
26710;SDS011;18311;52.754;18.118;2022-08-16T11:10:19;10.28;;;7.90;;
26710;SDS011;18311;52.754;18.118;2022-08-16T11:12:53;8.43;;;7.62;;
26710;SDS011;18311;52.754;18.118;2022-08-16T11:15:26;8.15;;;7.42;;
26710;SDS011;18311;52.754;18.118;2022-08-16T11:18:00;8.05;;;7.25;;
26710;SDS011;18311;52.754;18.118;2022-08-16T11:20:33;8.78;;;7.85;;
26710;SDS011;18311;52.754;18.118;2022-08-16T11:23:07;9.20;;;7.55;;
26710;SDS011;18311;52.754;18.118;2022-08-16T11:25:39;7.85;;;7.05;;
26710;SDS011;18311;52.754;18.118;2022-08-16T11:28:12;8.18;;;7.37;;
26710;SDS011;18311;52.754;18.118;2022-08-16T11:30:46;8.98;;;7.45;;
26710;SDS011;18311;52.754;18.118;2022-08-16T11:33:19;7.50;;;6.90;;
26710;SDS011;18311;52.754;18.118;2022-08-16T11:35:52;7.97;;;7.28;;
26710;SDS011;18311;52.754;18.118;2022-08-16T11:38:25;9.08;;;7.40;;
26710;SDS011;18311;52.754;18.118;2022-08-16T11:40:58;8.15;;;7.45;;
26710;SDS011;18311;52.754;18.118;2022-08-16T11:43:30;7.90;;;7.20;;
26710;SDS011;18311;52.754;18.118;2022-08-16T11:46:06;8.55;;;7.50;;
26710;SDS011;18311;52.754;18.118;2022-08-16T11:48:40;8.23;;;7.42;;
26710;SDS011;18311;52.754;18.118;2022-08-16T11:51:15;9.43;;;7.55;;
26710;SDS011;18311;52.754;18.118;2022-08-16T11:53:46;8.18;;;7.47;;
26710;SDS011;18311;52.754;18.118;2022-08-16T11:56:19;7.87;;;7.17;;
26710;SDS011;18311;52.754;18.118;2022-08-16T11:58:53;9.08;;;8.13;;
26710;SDS011;18311;52.754;18.118;2022-08-16T12:01:24;9.53;;;8.73;;
26710;SDS011;18311;52.754;18.118;2022-08-16T12:04:00;9.80;;;8.80;;
26710;SDS011;18311;52.754;18.118;2022-08-16T12:06:32;9.15;;;8.28;;
26710;SDS011;18311;52.754;18.118;2022-08-16T12:09:05;8.68;;;7.97;;
26710;SDS011;18311;52.754;18.118;2022-08-16T12:11:39;9.08;;;8.28;;
26710;SDS011;18311;52.754;18.118;2022-08-16T12:14:12;9.10;;;8.30;;
26710;SDS011;18311;52.754;18.118;2022-08-16T12:16:44;9.43;;;8.53;;
26710;SDS011;18311;52.754;18.118;2022-08-16T12:19:17;8.60;;;7.80;;
26710;SDS011;18311;52.754;18.118;2022-08-16T12:21:49;8.88;;;8.08;;
26710;SDS011;18311;52.754;18.118;2022-08-16T12:24:22;8.90;;;8.10;;
26710;SDS011;18311;52.754;18.118;2022-08-16T12:26:53;9.88;;;9.00;;
26710;SDS011;18311;52.754;18.118;2022-08-16T12:29:27;9.28;;;8.48;;
26710;SDS011;18311;52.754;18.118;2022-08-16T12:31:58;8.40;;;7.70;;
26710;SDS011;18311;52.754;18.118;2022-08-16T12:34:31;8.95;;;8.15;;
26710;SDS011;18311;52.754;18.118;2022-08-16T12:37:02;8.50;;;7.80;;
26710;SDS011;18311;52.754;18.118;2022-08-16T12:39:35;8.90;;;8.00;;
26710;SDS011;18311;52.754;18.118;2022-08-16T12:42:09;8.28;;;7.58;;
26710;SDS011;18311;52.754;18.118;2022-08-16T12:44:42;9.33;;;8.43;;
26710;SDS011;18311;52.754;18.118;2022-08-16T12:47:13;9.60;;;8.80;;
26710;SDS011;18311;52.754;18.118;2022-08-16T12:50:08;9.70;;;8.90;;
26710;SDS011;18311;52.754;18.118;2022-08-16T12:52:37;9.60;;;8.70;;
26710;SDS011;18311;52.754;18.118;2022-08-16T12:55:11;14.20;;;9.55;;
26710;SDS011;18311;52.754;18.118;2022-08-16T12:57:42;15.23;;;13.62;;
26710;SDS011;18311;52.754;18.118;2022-08-16T13:00:17;14.33;;;12.18;;
26710;SDS011;18311;52.754;18.118;2022-08-16T13:02:50;12.78;;;11.22;;
26710;SDS011;18311;52.754;18.118;2022-08-16T13:05:22;13.05;;;9.20;;
26710;SDS011;18311;52.754;18.118;2022-08-16T13:07:55;13.62;;;10.58;;
26710;SDS011;18311;52.754;18.118;2022-08-16T13:10:28;15.78;;;9.05;;
26710;SDS011;18311;52.754;18.118;2022-08-16T13:13:03;13.08;;;10.60;;
26710;SDS011;18311;52.754;18.118;2022-08-16T13:15:36;11.08;;;8.25;;
26710;SDS011;18311;52.754;18.118;2022-08-16T13:18:10;7.75;;;6.47;;
26710;SDS011;18311;52.754;18.118;2022-08-16T13:20:42;7.72;;;6.25;;
26710;SDS011;18311;52.754;18.118;2022-08-16T13:23:14;7.62;;;5.85;;
26710;SDS011;18311;52.754;18.118;2022-08-16T13:25:47;6.55;;;5.60;;
26710;SDS011;18311;52.754;18.118;2022-08-16T13:28:21;6.90;;;5.13;;
26710;SDS011;18311;52.754;18.118;2022-08-16T13:30:54;6.28;;;5.20;;
26710;SDS011;18311;52.754;18.118;2022-08-16T13:33:30;6.40;;;4.85;;
26710;SDS011;18311;52.754;18.118;2022-08-16T13:36:08;6.58;;;4.30;;
26710;SDS011;18311;52.754;18.118;2022-08-16T13:38:39;4.75;;;4.30;;
26710;SDS011;18311;52.754;18.118;2022-08-16T13:41:12;5.62;;;3.80;;
26710;SDS011;18311;52.754;18.118;2022-08-16T13:43:43;5.10;;;4.03;;
26710;SDS011;18311;52.754;18.118;2022-08-16T13:46:16;6.58;;;4.20;;
26710;SDS011;18311;52.754;18.118;2022-08-16T13:48:48;4.22;;;3.62;;
26710;SDS011;18311;52.754;18.118;2022-08-16T13:51:20;6.60;;;4.37;;
26710;SDS011;18311;52.754;18.118;2022-08-16T13:53:54;4.20;;;3.80;;
26710;SDS011;18311;52.754;18.118;2022-08-16T13:56:28;5.90;;;4.33;;
26710;SDS011;18311;52.754;18.118;2022-08-16T13:59:04;5.15;;;4.50;;
26710;SDS011;18311;52.754;18.118;2022-08-16T14:01:39;5.03;;;4.47;;
26710;SDS011;18311;52.754;18.118;2022-08-16T14:04:12;5.60;;;4.58;;
26710;SDS011;18311;52.754;18.118;2022-08-16T14:06:46;5.03;;;4.53;;
26710;SDS011;18311;52.754;18.118;2022-08-16T14:09:18;5.92;;;4.90;;
26710;SDS011;18311;52.754;18.118;2022-08-16T14:11:51;6.35;;;5.00;;
26710;SDS011;18311;52.754;18.118;2022-08-16T14:14:22;5.65;;;5.12;;
26710;SDS011;18311;52.754;18.118;2022-08-16T14:16:56;5.20;;;4.65;;
26710;SDS011;18311;52.754;18.118;2022-08-16T14:19:28;5.12;;;4.67;;
26710;SDS011;18311;52.754;18.118;2022-08-16T14:22:00;5.83;;;4.90;;
26710;SDS011;18311;52.754;18.118;2022-08-16T14:24:33;6.28;;;5.42;;
26710;SDS011;18311;52.754;18.118;2022-08-16T14:27:04;6.92;;;5.75;;
26710;SDS011;18311;52.754;18.118;2022-08-16T14:29:36;6.65;;;5.58;;
26710;SDS011;18311;52.754;18.118;2022-08-16T14:32:09;7.53;;;5.85;;
26710;SDS011;18311;52.754;18.118;2022-08-16T14:34:41;6.75;;;5.70;;
26710;SDS011;18311;52.754;18.118;2022-08-16T14:37:13;5.70;;;5.17;;
26710;SDS011;18311;52.754;18.118;2022-08-16T14:39:45;6.00;;;5.50;;
26710;SDS011;18311;52.754;18.118;2022-08-16T14:42:21;6.12;;;5.62;;
26710;SDS011;18311;52.754;18.118;2022-08-16T14:44:50;6.00;;;5.50;;
26710;SDS011;18311;52.754;18.118;2022-08-16T14:47:22;6.25;;;5.67;;
26710;SDS011;18311;52.754;18.118;2022-08-16T14:49:55;6.05;;;5.55;;
26710;SDS011;18311;52.754;18.118;2022-08-16T14:52:26;5.97;;;5.47;;
26710;SDS011;18311;52.754;18.118;2022-08-16T14:55:00;7.05;;;5.58;;
26710;SDS011;18311;52.754;18.118;2022-08-16T14:57:33;6.20;;;5.60;;